sensor_id;sensor_type;location;lat;lon;timestamp;P1;durP1;ratioP1;P2;durP2;ratioP2
40997;SDS011;26740;45.944;12.480;2023-03-13T00:03:41;9.20;;;5.35;;
40997;SDS011;26740;45.944;12.480;2023-03-13T00:06:07;7.50;;;4.68;;
40997;SDS011;26740;45.944;12.480;2023-03-13T00:08:32;10.13;;;5.15;;
40997;SDS011;26740;45.944;12.480;2023-03-13T00:11:01;6.50;;;4.75;;
40997;SDS011;26740;45.944;12.480;2023-03-13T00:13:31;7.40;;;5.05;;
40997;SDS011;26740;45.944;12.480;2023-03-13T00:16:04;9.13;;;4.82;;
40997;SDS011;26740;45.944;12.480;2023-03-13T00:18:31;7.00;;;4.53;;
40997;SDS011;26740;45.944;12.480;2023-03-13T00:20:57;10.02;;;4.78;;
40997;SDS011;26740;45.944;12.480;2023-03-13T00:23:24;11.23;;;4.82;;
40997;SDS011;26740;45.944;12.480;2023-03-13T00:25:59;7.75;;;4.50;;
40997;SDS011;26740;45.944;12.480;2023-03-13T00:28:30;9.05;;;5.40;;
40997;SDS011;26740;45.944;12.480;2023-03-13T00:31:04;6.60;;;4.28;;
40997;SDS011;26740;45.944;12.480;2023-03-13T00:33:41;7.60;;;4.25;;
40997;SDS011;26740;45.944;12.480;2023-03-13T00:36:09;9.32;;;5.03;;
40997;SDS011;26740;45.944;12.480;2023-03-13T00:38:37;6.15;;;4.30;;
40997;SDS011;26740;45.944;12.480;2023-03-13T00:43:31;8.85;;;4.78;;
40997;SDS011;26740;45.944;12.480;2023-03-13T00:45:58;8.95;;;4.75;;
40997;SDS011;26740;45.944;12.480;2023-03-13T00:48:24;7.45;;;4.72;;
40997;SDS011;26740;45.944;12.480;2023-03-13T00:50:49;7.07;;;4.53;;
40997;SDS011;26740;45.944;12.480;2023-03-13T00:53:15;11.02;;;4.70;;
40997;SDS011;26740;45.944;12.480;2023-03-13T00:55:51;9.93;;;4.95;;
40997;SDS011;26740;45.944;12.480;2023-03-13T00:58:17;9.57;;;5.50;;
40997;SDS011;26740;45.944;12.480;2023-03-13T01:00:42;9.02;;;5.63;;
40997;SDS011;26740;45.944;12.480;2023-03-13T01:03:08;10.13;;;5.35;;
40997;SDS011;26740;45.944;12.480;2023-03-13T01:05:33;9.98;;;4.82;;
40997;SDS011;26740;45.944;12.480;2023-03-13T01:07:59;9.88;;;6.43;;
40997;SDS011;26740;45.944;12.480;2023-03-13T01:10:25;9.75;;;5.25;;
40997;SDS011;26740;45.944;12.480;2023-03-13T01:12:50;9.77;;;4.95;;
40997;SDS011;26740;45.944;12.480;2023-03-13T01:15:16;14.05;;;5.28;;
40997;SDS011;26740;45.944;12.480;2023-03-13T01:17:43;13.38;;;5.72;;
40997;SDS011;26740;45.944;12.480;2023-03-13T01:20:10;9.38;;;5.28;;
40997;SDS011;26740;45.944;12.480;2023-03-13T01:22:36;9.10;;;5.05;;
40997;SDS011;26740;45.944;12.480;2023-03-13T01:25:02;8.70;;;4.85;;
40997;SDS011;26740;45.944;12.480;2023-03-13T01:27:28;8.30;;;4.88;;
40997;SDS011;26740;45.944;12.480;2023-03-13T01:29:53;10.30;;;5.07;;
40997;SDS011;26740;45.944;12.480;2023-03-13T01:32:19;10.32;;;5.32;;
40997;SDS011;26740;45.944;12.480;2023-03-13T01:34:45;7.28;;;4.40;;
40997;SDS011;26740;45.944;12.480;2023-03-13T01:37:10;8.60;;;5.00;;
40997;SDS011;26740;45.944;12.480;2023-03-13T01:39:36;6.47;;;4.75;;
40997;SDS011;26740;45.944;12.480;2023-03-13T01:42:05;9.15;;;5.22;;
40997;SDS011;26740;45.944;12.480;2023-03-13T01:44:50;10.13;;;5.50;;
40997;SDS011;26740;45.944;12.480;2023-03-13T01:47:18;7.03;;;4.65;;
40997;SDS011;26740;45.944;12.480;2023-03-13T01:49:43;10.20;;;5.05;;
40997;SDS011;26740;45.944;12.480;2023-03-13T01:52:15;12.93;;;5.70;;
40997;SDS011;26740;45.944;12.480;2023-03-13T01:54:52;8.93;;;5.18;;
40997;SDS011;26740;45.944;12.480;2023-03-13T01:57:24;8.15;;;4.97;;
40997;SDS011;26740;45.944;12.480;2023-03-13T02:10:18;8.93;;;4.78;;
40997;SDS011;26740;45.944;12.480;2023-03-13T02:12:46;7.43;;;4.32;;
40997;SDS011;26740;45.944;12.480;2023-03-13T02:15:16;8.82;;;4.35;;
40997;SDS011;26740;45.944;12.480;2023-03-13T02:17:44;11.82;;;5.75;;
40997;SDS011;26740;45.944;12.480;2023-03-13T02:20:12;8.77;;;4.72;;
40997;SDS011;26740;45.944;12.480;2023-03-13T02:27:47;12.85;;;4.55;;
40997;SDS011;26740;45.944;12.480;2023-03-13T02:30:16;12.60;;;4.78;;
40997;SDS011;26740;45.944;12.480;2023-03-13T02:32:43;12.52;;;5.28;;
40997;SDS011;26740;45.944;12.480;2023-03-13T02:35:11;9.90;;;4.13;;
40997;SDS011;26740;45.944;12.480;2023-03-13T02:37:43;9.80;;;4.30;;
40997;SDS011;26740;45.944;12.480;2023-03-13T02:40:13;8.90;;;3.30;;
40997;SDS011;26740;45.944;12.480;2023-03-13T02:42:42;6.35;;;3.45;;
40997;SDS011;26740;45.944;12.480;2023-03-13T02:45:12;5.57;;;3.20;;
40997;SDS011;26740;45.944;12.480;2023-03-13T02:50:15;6.07;;;3.28;;
40997;SDS011;26740;45.944;12.480;2023-03-13T02:55:14;4.93;;;3.53;;
40997;SDS011;26740;45.944;12.480;2023-03-13T03:00:09;4.47;;;2.28;;
40997;SDS011;26740;45.944;12.480;2023-03-13T03:02:40;4.45;;;2.80;;
40997;SDS011;26740;45.944;12.480;2023-03-13T03:05:06;6.68;;;3.55;;
40997;SDS011;26740;45.944;12.480;2023-03-13T03:07:32;5.53;;;3.13;;
40997;SDS011;26740;45.944;12.480;2023-03-13T03:09:58;4.95;;;3.45;;
40997;SDS011;26740;45.944;12.480;2023-03-13T03:12:23;4.00;;;2.58;;
40997;SDS011;26740;45.944;12.480;2023-03-13T03:14:49;5.38;;;2.55;;
40997;SDS011;26740;45.944;12.480;2023-03-13T03:17:15;4.13;;;2.42;;
40997;SDS011;26740;45.944;12.480;2023-03-13T03:19:40;6.35;;;2.53;;
40997;SDS011;26740;45.944;12.480;2023-03-13T03:22:06;7.30;;;3.17;;
40997;SDS011;26740;45.944;12.480;2023-03-13T03:24:31;6.65;;;2.28;;
40997;SDS011;26740;45.944;12.480;2023-03-13T03:26:57;6.07;;;2.70;;
40997;SDS011;26740;45.944;12.480;2023-03-13T03:29:22;7.53;;;3.05;;
40997;SDS011;26740;45.944;12.480;2023-03-13T03:31:48;4.78;;;3.15;;
40997;SDS011;26740;45.944;12.480;2023-03-13T03:34:14;6.25;;;3.42;;
40997;SDS011;26740;45.944;12.480;2023-03-13T03:36:39;4.22;;;2.50;;
40997;SDS011;26740;45.944;12.480;2023-03-13T03:39:05;9.50;;;3.05;;
40997;SDS011;26740;45.944;12.480;2023-03-13T03:41:31;4.65;;;2.75;;
40997;SDS011;26740;45.944;12.480;2023-03-13T03:43:56;6.80;;;3.55;;
40997;SDS011;26740;45.944;12.480;2023-03-13T03:46:22;7.00;;;3.42;;
40997;SDS011;26740;45.944;12.480;2023-03-13T03:48:48;5.75;;;3.22;;
40997;SDS011;26740;45.944;12.480;2023-03-13T03:51:14;7.88;;;3.10;;
40997;SDS011;26740;45.944;12.480;2023-03-13T03:53:40;7.68;;;3.33;;
40997;SDS011;26740;45.944;12.480;2023-03-13T03:56:06;5.65;;;3.60;;
40997;SDS011;26740;45.944;12.480;2023-03-13T03:58:31;5.78;;;3.20;;
40997;SDS011;26740;45.944;12.480;2023-03-13T04:00:57;6.32;;;3.83;;
40997;SDS011;26740;45.944;12.480;2023-03-13T04:03:24;6.15;;;3.50;;
40997;SDS011;26740;45.944;12.480;2023-03-13T04:05:50;8.35;;;3.80;;
40997;SDS011;26740;45.944;12.480;2023-03-13T04:08:16;4.32;;;2.88;;
40997;SDS011;26740;45.944;12.480;2023-03-13T04:10:42;7.70;;;4.25;;
40997;SDS011;26740;45.944;12.480;2023-03-13T04:13:07;11.13;;;4.10;;
40997;SDS011;26740;45.944;12.480;2023-03-13T04:15:33;5.85;;;3.30;;
40997;SDS011;26740;45.944;12.480;2023-03-13T04:17:59;4.15;;;3.05;;
40997;SDS011;26740;45.944;12.480;2023-03-13T04:20:24;9.38;;;3.30;;
40997;SDS011;26740;45.944;12.480;2023-03-13T04:22:50;6.65;;;3.25;;
40997;SDS011;26740;45.944;12.480;2023-03-13T04:25:16;5.63;;;3.58;;
40997;SDS011;26740;45.944;12.480;2023-03-13T04:27:42;6.47;;;3.53;;
40997;SDS011;26740;45.944;12.480;2023-03-13T04:30:08;7.20;;;3.80;;
40997;SDS011;26740;45.944;12.480;2023-03-13T04:32:34;5.47;;;3.63;;
40997;SDS011;26740;45.944;12.480;2023-03-13T04:34:59;7.63;;;4.25;;
40997;SDS011;26740;45.944;12.480;2023-03-13T04:37:25;9.23;;;4.05;;
40997;SDS011;26740;45.944;12.480;2023-03-13T04:39:51;6.03;;;3.58;;
40997;SDS011;26740;45.944;12.480;2023-03-13T04:42:16;9.55;;;3.80;;
40997;SDS011;26740;45.944;12.480;2023-03-13T04:44:42;6.50;;;3.20;;
40997;SDS011;26740;45.944;12.480;2023-03-13T04:47:07;6.63;;;3.90;;
40997;SDS011;26740;45.944;12.480;2023-03-13T04:49:33;9.10;;;3.17;;
40997;SDS011;26740;45.944;12.480;2023-03-13T04:51:59;5.03;;;3.22;;
40997;SDS011;26740;45.944;12.480;2023-03-13T04:54:25;4.55;;;3.28;;
40997;SDS011;26740;45.944;12.480;2023-03-13T04:56:50;7.30;;;4.38;;
40997;SDS011;26740;45.944;12.480;2023-03-13T04:59:16;6.45;;;3.50;;
40997;SDS011;26740;45.944;12.480;2023-03-13T05:01:42;4.38;;;2.92;;
40997;SDS011;26740;45.944;12.480;2023-03-13T05:04:08;6.20;;;3.13;;
40997;SDS011;26740;45.944;12.480;2023-03-13T05:06:34;5.35;;;3.53;;
40997;SDS011;26740;45.944;12.480;2023-03-13T05:09:00;3.72;;;2.78;;
40997;SDS011;26740;45.944;12.480;2023-03-13T05:11:27;5.32;;;2.80;;
40997;SDS011;26740;45.944;12.480;2023-03-13T05:13:53;4.80;;;3.42;;
40997;SDS011;26740;45.944;12.480;2023-03-13T05:16:18;9.55;;;3.05;;
40997;SDS011;26740;45.944;12.480;2023-03-13T05:18:44;4.88;;;2.92;;
40997;SDS011;26740;45.944;12.480;2023-03-13T05:21:10;6.75;;;3.58;;
40997;SDS011;26740;45.944;12.480;2023-03-13T05:23:36;6.63;;;3.13;;
40997;SDS011;26740;45.944;12.480;2023-03-13T05:26:01;5.97;;;2.67;;
40997;SDS011;26740;45.944;12.480;2023-03-13T05:28:27;4.50;;;2.90;;
40997;SDS011;26740;45.944;12.480;2023-03-13T05:30:53;5.82;;;3.90;;
40997;SDS011;26740;45.944;12.480;2023-03-13T05:33:18;6.38;;;3.28;;
40997;SDS011;26740;45.944;12.480;2023-03-13T05:35:44;5.45;;;3.72;;
40997;SDS011;26740;45.944;12.480;2023-03-13T05:38:11;6.45;;;3.65;;
40997;SDS011;26740;45.944;12.480;2023-03-13T05:40:37;3.85;;;3.03;;
40997;SDS011;26740;45.944;12.480;2023-03-13T05:43:03;4.63;;;3.38;;
40997;SDS011;26740;45.944;12.480;2023-03-13T05:45:29;6.10;;;3.08;;
40997;SDS011;26740;45.944;12.480;2023-03-13T05:47:54;12.77;;;4.50;;
40997;SDS011;26740;45.944;12.480;2023-03-13T05:50:20;9.95;;;4.72;;
40997;SDS011;26740;45.944;12.480;2023-03-13T05:52:46;7.20;;;4.30;;
40997;SDS011;26740;45.944;12.480;2023-03-13T05:55:12;8.77;;;3.92;;
40997;SDS011;26740;45.944;12.480;2023-03-13T06:01:04;5.30;;;2.70;;
40997;SDS011;26740;45.944;12.480;2023-03-13T06:03:31;5.07;;;3.28;;
40997;SDS011;26740;45.944;12.480;2023-03-13T06:05:57;5.10;;;2.88;;
40997;SDS011;26740;45.944;12.480;2023-03-13T06:08:23;6.85;;;3.45;;
40997;SDS011;26740;45.944;12.480;2023-03-13T06:10:49;6.18;;;3.72;;
40997;SDS011;26740;45.944;12.480;2023-03-13T06:13:14;6.63;;;4.10;;
40997;SDS011;26740;45.944;12.480;2023-03-13T06:15:40;5.50;;;3.78;;
40997;SDS011;26740;45.944;12.480;2023-03-13T06:18:05;5.65;;;3.90;;
40997;SDS011;26740;45.944;12.480;2023-03-13T06:20:31;9.88;;;3.60;;
40997;SDS011;26740;45.944;12.480;2023-03-13T06:22:57;5.45;;;3.25;;
40997;SDS011;26740;45.944;12.480;2023-03-13T06:25:22;4.18;;;3.17;;
40997;SDS011;26740;45.944;12.480;2023-03-13T06:27:49;6.57;;;3.55;;
40997;SDS011;26740;45.944;12.480;2023-03-13T06:30:15;5.97;;;3.10;;
40997;SDS011;26740;45.944;12.480;2023-03-13T06:32:41;7.10;;;3.63;;
40997;SDS011;26740;45.944;12.480;2023-03-13T06:35:07;5.65;;;3.75;;
40997;SDS011;26740;45.944;12.480;2023-03-13T06:37:33;6.85;;;3.83;;
40997;SDS011;26740;45.944;12.480;2023-03-13T06:39:59;5.75;;;3.75;;
40997;SDS011;26740;45.944;12.480;2023-03-13T06:42:24;7.97;;;4.00;;
40997;SDS011;26740;45.944;12.480;2023-03-13T06:44:50;6.70;;;4.15;;
40997;SDS011;26740;45.944;12.480;2023-03-13T06:47:16;6.05;;;4.28;;
40997;SDS011;26740;45.944;12.480;2023-03-13T06:49:41;6.05;;;4.03;;
40997;SDS011;26740;45.944;12.480;2023-03-13T06:52:07;8.07;;;4.22;;
40997;SDS011;26740;45.944;12.480;2023-03-13T06:54:32;13.25;;;4.10;;
40997;SDS011;26740;45.944;12.480;2023-03-13T06:56:58;6.10;;;4.00;;
40997;SDS011;26740;45.944;12.480;2023-03-13T06:59:24;6.47;;;4.03;;
40997;SDS011;26740;45.944;12.480;2023-03-13T07:01:49;7.60;;;4.30;;
40997;SDS011;26740;45.944;12.480;2023-03-13T07:04:15;15.02;;;4.95;;
40997;SDS011;26740;45.944;12.480;2023-03-13T07:06:41;14.98;;;5.20;;
40997;SDS011;26740;45.944;12.480;2023-03-13T07:09:07;9.35;;;4.85;;
40997;SDS011;26740;45.944;12.480;2023-03-13T07:11:33;6.97;;;4.65;;
40997;SDS011;26740;45.944;12.480;2023-03-13T07:13:58;8.32;;;4.72;;
40997;SDS011;26740;45.944;12.480;2023-03-13T07:16:26;11.80;;;5.10;;
40997;SDS011;26740;45.944;12.480;2023-03-13T07:18:51;7.10;;;4.40;;
40997;SDS011;26740;45.944;12.480;2023-03-13T07:21:17;11.02;;;4.35;;
40997;SDS011;26740;45.944;12.480;2023-03-13T07:23:43;11.95;;;4.55;;
40997;SDS011;26740;45.944;12.480;2023-03-13T07:26:10;11.50;;;5.18;;
40997;SDS011;26740;45.944;12.480;2023-03-13T07:28:40;15.60;;;4.88;;
40997;SDS011;26740;45.944;12.480;2023-03-13T07:31:07;11.00;;;4.70;;
40997;SDS011;26740;45.944;12.480;2023-03-13T07:33:33;6.60;;;4.07;;
40997;SDS011;26740;45.944;12.480;2023-03-13T07:35:59;9.70;;;5.05;;
40997;SDS011;26740;45.944;12.480;2023-03-13T07:38:24;11.75;;;4.57;;
40997;SDS011;26740;45.944;12.480;2023-03-13T07:40:51;15.13;;;5.38;;
40997;SDS011;26740;45.944;12.480;2023-03-13T07:43:18;11.73;;;5.07;;
40997;SDS011;26740;45.944;12.480;2023-03-13T07:45:51;15.88;;;5.43;;
40997;SDS011;26740;45.944;12.480;2023-03-13T07:48:27;17.75;;;5.90;;
40997;SDS011;26740;45.944;12.480;2023-03-13T07:50:54;15.32;;;6.82;;
40997;SDS011;26740;45.944;12.480;2023-03-13T07:53:20;18.08;;;7.35;;
40997;SDS011;26740;45.944;12.480;2023-03-13T07:58:22;9.30;;;5.68;;
40997;SDS011;26740;45.944;12.480;2023-03-13T08:00:50;16.63;;;6.78;;
40997;SDS011;26740;45.944;12.480;2023-03-13T08:03:16;21.05;;;8.13;;
40997;SDS011;26740;45.944;12.480;2023-03-13T08:05:41;27.05;;;6.95;;
40997;SDS011;26740;45.944;12.480;2023-03-13T08:08:07;19.27;;;7.55;;
40997;SDS011;26740;45.944;12.480;2023-03-13T08:10:33;26.30;;;7.45;;
40997;SDS011;26740;45.944;12.480;2023-03-13T08:12:59;14.60;;;7.25;;
40997;SDS011;26740;45.944;12.480;2023-03-13T08:15:24;24.40;;;7.40;;
40997;SDS011;26740;45.944;12.480;2023-03-13T08:17:51;16.63;;;6.25;;
40997;SDS011;26740;45.944;12.480;2023-03-13T08:20:17;31.95;;;8.18;;
40997;SDS011;26740;45.944;12.480;2023-03-13T08:22:44;15.82;;;6.78;;
40997;SDS011;26740;45.944;12.480;2023-03-13T08:25:14;16.83;;;6.70;;
40997;SDS011;26740;45.944;12.480;2023-03-13T08:27:40;18.95;;;6.28;;
40997;SDS011;26740;45.944;12.480;2023-03-13T08:30:06;12.38;;;5.50;;
40997;SDS011;26740;45.944;12.480;2023-03-13T08:32:33;16.48;;;5.50;;
40997;SDS011;26740;45.944;12.480;2023-03-13T08:35:02;10.55;;;4.38;;
40997;SDS011;26740;45.944;12.480;2023-03-13T08:37:28;4.80;;;3.10;;
40997;SDS011;26740;45.944;12.480;2023-03-13T08:39:53;7.63;;;3.67;;
40997;SDS011;26740;45.944;12.480;2023-03-13T08:42:21;6.10;;;2.60;;
40997;SDS011;26740;45.944;12.480;2023-03-13T08:44:47;10.18;;;2.72;;
40997;SDS011;26740;45.944;12.480;2023-03-13T08:47:13;9.75;;;2.95;;
40997;SDS011;26740;45.944;12.480;2023-03-13T08:49:39;3.58;;;2.60;;
40997;SDS011;26740;45.944;12.480;2023-03-13T08:52:05;7.60;;;4.38;;
40997;SDS011;26740;45.944;12.480;2023-03-13T08:54:31;8.27;;;4.13;;
40997;SDS011;26740;45.944;12.480;2023-03-13T08:56:57;7.25;;;3.13;;
40997;SDS011;26740;45.944;12.480;2023-03-13T08:59:24;7.22;;;3.80;;
40997;SDS011;26740;45.944;12.480;2023-03-13T09:01:49;11.35;;;5.18;;
40997;SDS011;26740;45.944;12.480;2023-03-13T09:04:15;6.38;;;2.92;;
40997;SDS011;26740;45.944;12.480;2023-03-13T09:06:41;4.13;;;2.53;;
40997;SDS011;26740;45.944;12.480;2023-03-13T09:09:08;9.30;;;2.85;;
40997;SDS011;26740;45.944;12.480;2023-03-13T09:11:34;5.60;;;2.72;;
40997;SDS011;26740;45.944;12.480;2023-03-13T09:14:01;4.38;;;2.53;;
40997;SDS011;26740;45.944;12.480;2023-03-13T09:16:27;5.85;;;1.90;;
40997;SDS011;26740;45.944;12.480;2023-03-13T09:18:54;6.43;;;2.20;;
40997;SDS011;26740;45.944;12.480;2023-03-13T09:21:22;3.30;;;1.85;;
40997;SDS011;26740;45.944;12.480;2023-03-13T09:23:49;3.67;;;2.08;;
40997;SDS011;26740;45.944;12.480;2023-03-13T09:26:16;4.72;;;2.00;;
40997;SDS011;26740;45.944;12.480;2023-03-13T09:28:42;6.15;;;2.35;;
40997;SDS011;26740;45.944;12.480;2023-03-13T09:31:12;6.15;;;2.10;;
40997;SDS011;26740;45.944;12.480;2023-03-13T09:33:39;5.30;;;3.13;;
40997;SDS011;26740;45.944;12.480;2023-03-13T09:36:06;4.40;;;2.72;;
40997;SDS011;26740;45.944;12.480;2023-03-13T09:38:33;4.80;;;2.08;;
40997;SDS011;26740;45.944;12.480;2023-03-13T09:41:03;3.35;;;1.95;;
40997;SDS011;26740;45.944;12.480;2023-03-13T09:43:41;11.90;;;2.75;;
40997;SDS011;26740;45.944;12.480;2023-03-13T09:48:56;3.88;;;2.00;;
40997;SDS011;26740;45.944;12.480;2023-03-13T09:51:28;6.03;;;2.30;;
40997;SDS011;26740;45.944;12.480;2023-03-13T09:54:15;2.95;;;2.13;;
40997;SDS011;26740;45.944;12.480;2023-03-13T09:56:56;7.57;;;2.28;;
40997;SDS011;26740;45.944;12.480;2023-03-13T09:59:31;4.50;;;2.88;;
40997;SDS011;26740;45.944;12.480;2023-03-13T10:01:57;8.60;;;3.10;;
40997;SDS011;26740;45.944;12.480;2023-03-13T10:07:11;5.88;;;3.70;;
40997;SDS011;26740;45.944;12.480;2023-03-13T10:09:36;4.78;;;3.08;;
40997;SDS011;26740;45.944;12.480;2023-03-13T10:12:16;6.78;;;3.63;;
40997;SDS011;26740;45.944;12.480;2023-03-13T10:14:52;7.32;;;2.92;;
40997;SDS011;26740;45.944;12.480;2023-03-13T10:17:39;5.45;;;2.50;;
40997;SDS011;26740;45.944;12.480;2023-03-13T10:22:58;6.00;;;3.40;;
40997;SDS011;26740;45.944;12.480;2023-03-13T10:25:37;12.02;;;3.80;;
40997;SDS011;26740;45.944;12.480;2023-03-13T10:28:04;4.63;;;3.33;;
40997;SDS011;26740;45.944;12.480;2023-03-13T10:30:35;4.72;;;3.47;;
40997;SDS011;26740;45.944;12.480;2023-03-13T10:35:37;6.68;;;3.55;;
40997;SDS011;26740;45.944;12.480;2023-03-13T10:38:17;6.50;;;3.58;;
40997;SDS011;26740;45.944;12.480;2023-03-13T10:40:57;5.50;;;3.20;;
40997;SDS011;26740;45.944;12.480;2023-03-13T10:43:25;9.13;;;4.10;;
40997;SDS011;26740;45.944;12.480;2023-03-13T10:45:53;5.97;;;3.72;;
40997;SDS011;26740;45.944;12.480;2023-03-13T10:48:19;5.43;;;3.60;;
40997;SDS011;26740;45.944;12.480;2023-03-13T10:50:51;11.18;;;4.05;;
40997;SDS011;26740;45.944;12.480;2023-03-13T10:55:51;5.82;;;3.40;;
40997;SDS011;26740;45.944;12.480;2023-03-13T10:58:40;6.20;;;2.45;;
40997;SDS011;26740;45.944;12.480;2023-03-13T11:03:50;7.00;;;3.25;;
40997;SDS011;26740;45.944;12.480;2023-03-13T11:11:44;3.05;;;2.20;;
40997;SDS011;26740;45.944;12.480;2023-03-13T11:14:14;2.97;;;2.22;;
40997;SDS011;26740;45.944;12.480;2023-03-13T11:16:46;5.93;;;2.63;;
40997;SDS011;26740;45.944;12.480;2023-03-13T11:19:34;3.90;;;2.60;;
40997;SDS011;26740;45.944;12.480;2023-03-13T11:25:07;2.67;;;1.40;;
40997;SDS011;26740;45.944;12.480;2023-03-13T11:30:51;3.53;;;1.70;;
40997;SDS011;26740;45.944;12.480;2023-03-13T11:36:21;4.28;;;1.63;;
40997;SDS011;26740;45.944;12.480;2023-03-13T11:41:36;3.15;;;1.17;;
40997;SDS011;26740;45.944;12.480;2023-03-13T11:44:29;3.88;;;1.75;;
40997;SDS011;26740;45.944;12.480;2023-03-13T11:47:20;2.67;;;1.77;;
40997;SDS011;26740;45.944;12.480;2023-03-13T11:50:07;2.28;;;1.63;;
40997;SDS011;26740;45.944;12.480;2023-03-13T12:00:57;4.70;;;1.95;;
40997;SDS011;26740;45.944;12.480;2023-03-13T12:03:30;4.22;;;1.80;;
40997;SDS011;26740;45.944;12.480;2023-03-13T12:06:00;3.28;;;1.65;;
40997;SDS011;26740;45.944;12.480;2023-03-13T12:08:33;3.83;;;1.95;;
40997;SDS011;26740;45.944;12.480;2023-03-13T12:16:43;5.50;;;2.78;;
40997;SDS011;26740;45.944;12.480;2023-03-13T12:19:18;2.85;;;1.63;;
40997;SDS011;26740;45.944;12.480;2023-03-13T12:21:52;3.55;;;1.88;;
40997;SDS011;26740;45.944;12.480;2023-03-13T12:24:28;3.63;;;2.40;;
40997;SDS011;26740;45.944;12.480;2023-03-13T12:29:52;5.35;;;2.63;;
40997;SDS011;26740;45.944;12.480;2023-03-13T12:37:41;4.38;;;2.55;;
40997;SDS011;26740;45.944;12.480;2023-03-13T12:40:22;4.97;;;2.42;;
40997;SDS011;26740;45.944;12.480;2023-03-13T12:45:29;4.03;;;2.30;;
40997;SDS011;26740;45.944;12.480;2023-03-13T12:53:39;3.17;;;2.25;;
40997;SDS011;26740;45.944;12.480;2023-03-13T13:01:39;2.92;;;1.60;;
40997;SDS011;26740;45.944;12.480;2023-03-13T13:04:18;3.40;;;1.85;;
40997;SDS011;26740;45.944;12.480;2023-03-13T13:10:13;4.07;;;2.10;;
40997;SDS011;26740;45.944;12.480;2023-03-13T13:12:41;3.97;;;1.90;;
40997;SDS011;26740;45.944;12.480;2023-03-13T13:15:24;3.65;;;1.55;;
40997;SDS011;26740;45.944;12.480;2023-03-13T13:23:28;4.35;;;2.15;;
40997;SDS011;26740;45.944;12.480;2023-03-13T13:29:00;4.13;;;2.50;;
40997;SDS011;26740;45.944;12.480;2023-03-13T13:37:25;4.70;;;1.75;;
40997;SDS011;26740;45.944;12.480;2023-03-13T13:39:53;4.32;;;2.70;;
40997;SDS011;26740;45.944;12.480;2023-03-13T13:47:41;6.30;;;2.28;;
40997;SDS011;26740;45.944;12.480;2023-03-13T13:52:48;3.63;;;2.30;;
40997;SDS011;26740;45.944;12.480;2023-03-13T14:01:04;6.00;;;3.97;;
40997;SDS011;26740;45.944;12.480;2023-03-13T14:03:36;4.05;;;2.30;;
40997;SDS011;26740;45.944;12.480;2023-03-13T14:06:19;10.10;;;3.30;;
40997;SDS011;26740;45.944;12.480;2023-03-13T14:08:50;3.40;;;1.92;;
40997;SDS011;26740;45.944;12.480;2023-03-13T14:11:22;5.75;;;3.40;;
40997;SDS011;26740;45.944;12.480;2023-03-13T14:14:19;6.35;;;2.60;;
40997;SDS011;26740;45.944;12.480;2023-03-13T14:16:50;8.68;;;3.17;;
40997;SDS011;26740;45.944;12.480;2023-03-13T14:19:21;8.32;;;3.72;;
40997;SDS011;26740;45.944;12.480;2023-03-13T14:24:24;4.38;;;2.90;;
40997;SDS011;26740;45.944;12.480;2023-03-13T14:26:50;8.63;;;3.95;;
40997;SDS011;26740;45.944;12.480;2023-03-13T14:29:16;7.53;;;3.65;;
40997;SDS011;26740;45.944;12.480;2023-03-13T14:31:52;4.82;;;2.42;;
40997;SDS011;26740;45.944;12.480;2023-03-13T14:34:19;4.53;;;2.95;;
40997;SDS011;26740;45.944;12.480;2023-03-13T14:36:52;7.20;;;3.03;;
40997;SDS011;26740;45.944;12.480;2023-03-13T14:39:20;11.05;;;3.45;;
40997;SDS011;26740;45.944;12.480;2023-03-13T14:41:55;5.55;;;2.85;;
40997;SDS011;26740;45.944;12.480;2023-03-13T14:44:28;5.78;;;2.30;;
40997;SDS011;26740;45.944;12.480;2023-03-13T14:47:38;12.73;;;2.88;;
40997;SDS011;26740;45.944;12.480;2023-03-13T14:49:54;7.40;;;2.90;;
40997;SDS011;26740;45.944;12.480;2023-03-13T14:52:23;6.68;;;2.75;;
40997;SDS011;26740;45.944;12.480;2023-03-13T14:54:51;6.65;;;3.63;;
40997;SDS011;26740;45.944;12.480;2023-03-13T14:57:20;6.63;;;3.40;;
40997;SDS011;26740;45.944;12.480;2023-03-13T14:59:51;10.50;;;3.20;;
40997;SDS011;26740;45.944;12.480;2023-03-13T15:02:19;8.10;;;3.58;;
40997;SDS011;26740;45.944;12.480;2023-03-13T15:05:00;10.23;;;2.90;;
40997;SDS011;26740;45.944;12.480;2023-03-13T15:07:40;6.00;;;2.47;;
40997;SDS011;26740;45.944;12.480;2023-03-13T15:12:57;5.85;;;2.60;;
40997;SDS011;26740;45.944;12.480;2023-03-13T15:15:23;9.45;;;2.70;;
40997;SDS011;26740;45.944;12.480;2023-03-13T15:17:49;6.72;;;3.33;;
40997;SDS011;26740;45.944;12.480;2023-03-13T15:20:15;8.18;;;2.70;;
40997;SDS011;26740;45.944;12.480;2023-03-13T15:22:44;8.93;;;4.03;;
40997;SDS011;26740;45.944;12.480;2023-03-13T15:27:43;3.75;;;2.45;;
40997;SDS011;26740;45.944;12.480;2023-03-13T15:30:16;10.77;;;2.72;;
40997;SDS011;26740;45.944;12.480;2023-03-13T15:32:43;14.35;;;3.60;;
40997;SDS011;26740;45.944;12.480;2023-03-13T15:35:24;16.92;;;3.17;;
40997;SDS011;26740;45.944;12.480;2023-03-13T15:37:58;7.40;;;2.55;;
40997;SDS011;26740;45.944;12.480;2023-03-13T15:40:25;9.93;;;3.72;;
40997;SDS011;26740;45.944;12.480;2023-03-13T15:42:52;8.57;;;2.75;;
40997;SDS011;26740;45.944;12.480;2023-03-13T15:45:19;8.73;;;2.90;;
40997;SDS011;26740;45.944;12.480;2023-03-13T15:47:45;12.70;;;3.50;;
40997;SDS011;26740;45.944;12.480;2023-03-13T15:50:12;6.80;;;3.03;;
40997;SDS011;26740;45.944;12.480;2023-03-13T15:52:41;6.97;;;3.17;;
40997;SDS011;26740;45.944;12.480;2023-03-13T15:55:08;8.60;;;3.03;;
40997;SDS011;26740;45.944;12.480;2023-03-13T15:57:35;6.28;;;3.33;;
40997;SDS011;26740;45.944;12.480;2023-03-13T16:02:36;7.57;;;2.88;;
40997;SDS011;26740;45.944;12.480;2023-03-13T16:05:01;5.80;;;3.10;;
40997;SDS011;26740;45.944;12.480;2023-03-13T16:07:28;9.15;;;3.17;;
40997;SDS011;26740;45.944;12.480;2023-03-13T16:09:54;8.07;;;3.05;;
40997;SDS011;26740;45.944;12.480;2023-03-13T16:12:19;6.65;;;3.08;;
40997;SDS011;26740;45.944;12.480;2023-03-13T16:14:45;9.82;;;3.50;;
40997;SDS011;26740;45.944;12.480;2023-03-13T16:17:20;4.00;;;2.60;;
40997;SDS011;26740;45.944;12.480;2023-03-13T16:19:46;7.70;;;3.20;;
40997;SDS011;26740;45.944;12.480;2023-03-13T16:22:12;7.32;;;3.08;;
40997;SDS011;26740;45.944;12.480;2023-03-13T16:24:38;6.55;;;3.17;;
40997;SDS011;26740;45.944;12.480;2023-03-13T16:27:09;5.10;;;2.72;;
40997;SDS011;26740;45.944;12.480;2023-03-13T16:29:38;8.70;;;4.45;;
40997;SDS011;26740;45.944;12.480;2023-03-13T16:32:03;7.40;;;3.30;;
40997;SDS011;26740;45.944;12.480;2023-03-13T16:34:29;8.18;;;4.00;;
40997;SDS011;26740;45.944;12.480;2023-03-13T16:36:56;8.73;;;4.75;;
40997;SDS011;26740;45.944;12.480;2023-03-13T16:39:21;10.35;;;4.30;;
40997;SDS011;26740;45.944;12.480;2023-03-13T16:41:47;12.10;;;5.35;;
40997;SDS011;26740;45.944;12.480;2023-03-13T16:44:12;16.90;;;10.05;;
40997;SDS011;26740;45.944;12.480;2023-03-13T16:46:39;11.60;;;4.43;;
40997;SDS011;26740;45.944;12.480;2023-03-13T16:49:13;7.47;;;2.50;;
40997;SDS011;26740;45.944;12.480;2023-03-13T16:51:39;6.00;;;3.08;;
40997;SDS011;26740;45.944;12.480;2023-03-13T16:54:05;6.47;;;2.45;;
40997;SDS011;26740;45.944;12.480;2023-03-13T16:56:32;5.30;;;2.85;;
40997;SDS011;26740;45.944;12.480;2023-03-13T16:59:14;8.35;;;4.55;;
40997;SDS011;26740;45.944;12.480;2023-03-13T17:01:42;9.95;;;2.50;;
40997;SDS011;26740;45.944;12.480;2023-03-13T17:04:08;9.65;;;3.22;;